Crystal Hills, Colorado
Current Conditions -  °F | °C
As of 10:56 AM on Thursday 23 Oct 2014 (Local Time) from KCWN Reporting Station
Clear Clear  
Wind Chill: 62°   Ceiling: Unl
Heat Index: 62°   Visibility: 10mi
Dew Point: 32°   Wind: 12mph
Humidity: 33%   Direction: 130°SE
Pressure: 30.25"   Gusts: 16mph
Location:  38.8344°N, 104.938°W
Report Text: KCWN 231656Z AUTO 13010G14KT 10SM CLR 16/00 A3025 RMK AO2 SLP186 T01641001
Loading
Personal Weather Stations






























Interactive Weather Map
Tropical Storm Tracking
New forecast layout! Learn more

10-Day Weather Forecast

Advertisements
Track Severe Weather on mobile